Time;durP1;ratioP1;P1;durP2;ratioP2;P2;SDS_P1;SDS_P2;PMS_P1;PMS_P2;Temp;Humidity;BMP_temperature;BMP_pressure;BME280_temperature;BME280_humidity;BME280_pressure;Samples;Min_cycle;Max_cycle;Signal;HPM_P1;HPM_P2
2023/03/28 00:00:49;;;;;;;18.65;8.18;;;;;;;10.56;64.82;98459.97;4997367;28;20399;-73
2023/03/28 00:03:17;;;;;;;18.45;8.65;;;;;;;10.46;64.38;98464.72;4996258;28;20050;-73
2023/03/28 00:05:47;;;;;;;15.95;8.15;;;;;;;10.60;64.40;98466.53;4980312;28;20053;-76
2023/03/28 00:08:15;;;;;;;17.27;8.38;;;;;;;10.65;64.46;98468.63;4996439;28;20065;-72
2023/03/28 00:10:41;;;;;;;18.50;8.07;;;;;;;10.42;64.41;98470.59;4996010;28;20060;-70
2023/03/28 00:13:07;;;;;;;15.23;7.45;;;;;;;10.52;64.45;98457.88;4979693;28;20093;-78
2023/03/28 00:15:36;;;;;;;18.08;7.82;;;;;;;10.71;64.59;98465.22;4995891;28;20143;-71
2023/03/28 00:18:04;;;;;;;18.10;8.50;;;;;;;10.57;64.26;98476.69;4963400;28;20148;-70
2023/03/28 00:20:31;;;;;;;16.75;7.63;;;;;;;10.46;64.26;98475.34;4995898;28;20046;-71
2023/03/28 00:22:57;;;;;;;16.13;8.13;;;;;;;10.47;64.50;98478.84;4979259;28;20092;-72
2023/03/28 00:25:23;;;;;;;17.48;8.07;;;;;;;10.33;64.01;98490.28;4995522;28;20064;-72
2023/03/28 00:27:49;;;;;;;17.25;7.97;;;;;;;10.19;64.46;98495.41;4979403;28;20042;-72
2023/03/28 00:30:15;;;;;;;14.93;7.95;;;;;;;10.18;64.99;98488.47;4995612;28;20049;-72
2023/03/28 00:32:41;;;;;;;16.60;7.75;;;;;;;10.17;64.75;98497.44;4979066;28;20157;-72
2023/03/28 00:35:08;;;;;;;16.27;8.43;;;;;;;10.29;64.97;98496.97;4996347;28;20050;-72
2023/03/28 00:37:35;;;;;;;18.98;8.18;;;;;;;10.14;64.82;98502.28;4996334;28;20472;-71
2023/03/28 00:40:01;;;;;;;17.73;8.05;;;;;;;10.16;64.45;98505.56;4996392;28;20045;-73
2023/03/28 00:42:26;;;;;;;20.35;8.48;;;;;;;10.14;64.48;98508.41;4996445;28;20057;-73
2023/03/28 00:44:57;;;;;;;19.70;9.20;;;;;;;10.56;65.24;98502.44;4980158;28;20045;-73
2023/03/28 00:47:36;;;;;;;20.23;8.77;;;;;;;10.55;65.31;98502.63;5012836;28;20049;-73
2023/03/28 00:50:10;;;;;;;21.30;9.20;;;;;;;10.52;65.41;98511.78;5012270;28;20388;-74
2023/03/28 00:52:43;;;;;;;17.70;9.07;;;;;;;10.51;65.05;98511.94;4979945;28;20045;-74
2023/03/28 00:55:15;;;;;;;20.73;8.52;;;;;;;10.49;65.64;98512.13;4995986;28;20096;-73
2023/03/28 00:57:43;;;;;;;19.25;9.02;;;;;;;10.30;65.53;98504.75;4996012;28;20149;-74
2023/03/28 01:00:12;;;;;;;18.65;8.40;;;;;;;10.18;65.50;98507.03;4979872;28;20037;-73
2023/03/28 01:02:49;;;;;;;25.70;10.20;;;;;;;10.49;66.33;98506.84;5012324;28;20141;-72
2023/03/28 01:05:17;;;;;;;18.88;9.05;;;;;;;10.10;65.61;98507.13;4981147;28;20131;-72
2023/03/28 01:07:45;;;;;;;23.38;9.18;;;;;;;10.35;65.98;98505.00;5012361;28;20050;-73
2023/03/28 01:10:17;;;;;;;25.08;9.95;;;;;;;9.98;65.60;98507.69;4996707;28;20195;-73
2023/03/28 01:12:43;;;;;;;22.50;8.93;;;;;;;9.96;65.85;98509.75;4995688;28;20057;-73
2023/03/28 01:15:09;;;;;;;21.75;9.80;;;;;;;9.97;66.07;98509.56;4999924;28;20146;-73
2023/03/28 01:17:45;;;;;;;21.35;9.55;;;;;;;9.87;66.10;98518.78;4977514;28;20046;-73
2023/03/28 01:20:16;;;;;;;24.50;10.77;;;;;;;9.62;66.54;98496.97;4992235;28;20049;-74
2023/03/28 01:22:57;;;;;;;;;;;;;;;10.40;66.09;98510.59;4976665;28;20053;-73
2023/03/28 01:25:23;;;;;;;28.83;12.25;;;;;;;9.65;66.43;98512.53;4960437;28;19918;-71
2023/03/28 01:28:04;;;;;;;33.40;11.85;;;;;;;10.17;67.17;98521.31;4959375;28;20053;-73
2023/03/28 01:30:57;;;;;;;29.48;11.40;;;;;;;10.30;66.77;98503.91;4960717;28;20066;-72
2023/03/28 01:33:54;;;;;;;29.65;10.65;;;;;;;10.12;67.40;98491.00;4981074;28;20061;-72
2023/03/28 01:36:39;;;;;;;22.20;10.45;;;;;;;10.30;66.94;98504.75;4959135;28;20133;-73
2023/03/28 01:39:32;;;;;;;28.02;10.75;;;;;;;10.09;66.84;98505.47;4942783;28;20046;-74
2023/03/28 01:42:09;;;;;;;30.40;12.50;;;;;;;10.03;67.46;98502.69;4943093;28;20046;-72
2023/03/28 01:45:07;;;;;;;30.77;12.27;;;;;;;10.20;67.65;98507.69;4943658;28;20405;-72
2023/03/28 01:47:39;;;;;;;29.07;11.07;;;;;;;9.94;67.26;98512.56;4959520;28;20101;-72
2023/03/28 01:50:09;;;;;;;33.65;13.15;;;;;;;9.93;67.19;98499.50;4991004;28;20052;-71
2023/03/28 01:52:44;;;;;;;31.98;13.27;;;;;;;10.01;67.30;98513.47;4954901;28;20043;-74
2023/03/28 01:55:22;;;;;;;32.13;12.60;;;;;;;10.06;67.54;98515.59;4955642;28;20059;-73
2023/03/28 01:58:00;;;;;;;35.20;13.30;;;;;;;10.01;67.08;98526.75;4955801;28;20078;-73
2023/03/28 02:00:44;;;;;;;28.87;11.13;;;;;;;9.98;67.30;98519.16;4971397;28;20516;-73
2023/03/28 02:03:30;;;;;;;30.23;12.13;;;;;;;10.09;67.52;98528.50;4955866;28;20063;-73
2023/03/28 02:06:02;;;;;;;30.15;11.48;;;;;;;9.76;67.55;98525.31;4955342;28;20070;-73
2023/03/28 02:08:32;;;;;;;29.23;12.05;;;;;;;9.81;67.65;98532.75;4954783;28;20117;-72
2023/03/28 02:11:14;;;;;;;26.27;10.48;;;;;;;9.45;67.03;98532.56;4938220;28;20524;-73
2023/03/28 02:14:03;;;;;;;28.83;10.80;;;;;;;9.77;67.80;98527.00;4957048;28;20054;-75
2023/03/28 02:16:50;;;;;;;23.97;11.30;;;;;;;9.73;67.61;98536.28;4937685;28;20047;-74
2023/03/28 02:19:39;;;;;;;28.87;11.43;;;;;;;9.43;67.42;98544.34;4935503;28;20146;-72
2023/03/28 02:22:24;;;;;;;;;;;;;;;10.14;67.00;98542.06;4934424;29;20086;-72
2023/03/28 02:25:07;;;;;;;24.73;11.10;;;;;;;9.56;67.07;98542.72;4979836;28;20603;-73
2023/03/28 02:27:55;;;;;;;30.48;13.32;;;;;;;9.59;68.22;98536.25;4980180;28;20046;-73
2023/03/28 02:30:39;;;;;;;35.47;13.55;;;;;;;9.13;68.82;98546.06;4979660;28;20046;-73
2023/03/28 02:33:29;;;;;;;35.97;13.87;;;;;;;9.42;69.62;98546.19;4961083;28;20392;-72
2023/03/28 02:36:00;;;;;;;35.33;12.52;;;;;;;9.60;69.48;98554.63;4977878;28;20140;-79
2023/03/28 02:38:26;;;;;;;40.25;14.77;;;;;;;9.06;69.28;98558.31;4961509;28;20053;-73
2023/03/28 02:41:04;;;;;;;50.17;13.82;;;;;;;9.61;69.76;98555.47;4961364;28;20496;-72
2023/03/28 02:43:40;;;;;;;47.00;14.57;;;;;;;9.58;69.53;98553.97;4977514;28;20139;-73
2023/03/28 02:46:28;;;;;;;33.95;12.70;;;;;;;9.74;68.72;98564.47;4961143;28;20050;-73
2023/03/28 02:49:06;;;;;;;37.87;13.43;;;;;;;9.73;68.13;98562.81;4962178;28;20069;-70
2023/03/28 02:51:33;;;;;;;46.93;14.97;;;;;;;9.08;68.25;98558.97;4994088;28;20038;-70
2023/03/28 02:54:11;;;;;;;49.00;14.40;;;;;;;9.54;69.48;98552.69;4978202;28;20038;-72
2023/03/28 02:56:40;;;;;;;44.97;14.27;;;;;;;9.50;70.00;98562.00;4978302;28;20137;-71
2023/03/28 02:59:27;;;;;;;42.35;13.77;;;;;;;9.56;70.54;98571.88;4979421;28;20115;-73
2023/03/28 03:01:55;;;;;;;31.37;13.27;;;;;;;9.20;69.20;98576.13;5008343;28;20477;-74
2023/03/28 03:04:21;;;;;;;36.73;13.30;;;;;;;9.14;67.81;98579.47;4996389;28;20084;-73
2023/03/28 03:06:48;;;;;;;39.77;13.87;;;;;;;9.38;67.81;98584.59;4996389;28;20061;-73
2023/03/28 03:09:15;;;;;;;31.30;12.43;;;;;;;9.50;67.82;98591.16;4964076;28;20404;-73
2023/03/28 03:11:41;;;;;;;28.80;11.90;;;;;;;9.17;67.12;98594.19;4996433;28;20053;-72
2023/03/28 03:14:07;;;;;;;28.73;11.13;;;;;;;9.15;66.90;98591.72;4996253;28;20111;-74
2023/03/28 03:16:33;;;;;;;39.33;12.07;;;;;;;9.12;67.03;98593.91;4996260;28;20361;-73
2023/03/28 03:18:59;;;;;;;31.07;11.70;;;;;;;9.18;67.03;98596.66;5014037;28;20072;-73
2023/03/28 03:21:26;;;;;;;32.43;12.57;;;;;;;9.14;67.47;98592.72;4984308;28;20055;-73
2023/03/28 03:23:54;;;;;;;37.03;13.30;;;;;;;9.52;68.82;98602.41;4984074;28;20045;-73
2023/03/28 03:26:21;;;;;;;31.70;12.00;;;;;;;9.28;67.62;98599.09;4983862;28;20045;-74
2023/03/28 03:28:59;;;;;;;26.37;11.37;;;;;;;9.27;67.54;98600.91;4970598;28;20076;-71
2023/03/28 03:31:26;;;;;;;29.55;11.73;;;;;;;9.37;67.31;98606.81;4968147;28;20118;-72
2023/03/28 03:34:11;;;;;;;25.67;11.80;;;;;;;9.45;66.76;98608.59;5031908;28;20527;-70
2023/03/28 03:36:42;;;;;;;30.83;12.40;;;;;;;9.52;66.27;98615.66;5013891;28;20140;-68
2023/03/28 03:39:08;;;;;;;30.40;12.03;;;;;;;9.52;66.04;98617.47;5015006;28;20111;-70
2023/03/28 03:41:35;;;;;;;29.27;12.50;;;;;;;9.59;65.47;98613.97;5013953;28;20089;-71
2023/03/28 03:44:01;;;;;;;35.83;11.77;;;;;;;9.62;65.35;98616.25;4981089;28;20057;-70
2023/03/28 03:46:28;;;;;;;34.03;12.57;;;;;;;9.59;65.34;98606.00;4997691;28;20398;-71
2023/03/28 03:48:54;;;;;;;31.23;11.73;;;;;;;9.58;65.57;98606.19;4997389;28;20034;-71
2023/03/28 03:51:20;;;;;;;27.98;12.20;;;;;;;9.70;65.65;98613.53;4981258;28;20073;-71
2023/03/28 03:53:50;;;;;;;24.43;10.47;;;;;;;9.70;65.19;98616.19;4996013;28;20053;-71
2023/03/28 03:56:18;;;;;;;20.80;10.63;;;;;;;9.77;64.65;98624.25;4980966;28;20467;-69
2023/03/28 03:58:55;;;;;;;25.88;10.88;;;;;;;9.84;64.95;98631.31;4997403;28;20372;-69
2023/03/28 04:01:28;;;;;;;27.45;11.65;;;;;;;9.93;64.69;98619.63;4981057;28;20088;-69
2023/03/28 04:03:58;;;;;;;27.67;11.45;;;;;;;9.96;64.23;98629.09;4997584;28;20045;-69
2023/03/28 04:06:33;;;;;;;24.48;10.73;;;;;;;9.93;64.11;98622.28;4998389;28;20092;-70
2023/03/28 04:09:06;;;;;;;22.52;10.90;;;;;;;10.22;64.23;98618.94;4997728;28;20049;-70
2023/03/28 04:11:53;;;;;;;23.80;10.98;;;;;;;10.23;63.91;98623.22;4999657;28;20104;-70
2023/03/28 04:14:19;;;;;;;21.42;10.52;;;;;;;10.04;63.70;98629.84;4996833;28;20085;-71
2023/03/28 04:16:49;;;;;;;31.85;13.25;;;;;;;10.02;63.53;98623.06;4996893;28;20049;-70
2023/03/28 04:19:17;;;;;;;27.58;13.10;;;;;;;10.16;63.87;98630.28;5013303;28;20696;-70
2023/03/28 04:21:47;;;;;;;26.63;12.82;;;;;;;10.25;64.35;98615.91;4980466;28;20041;-73
2023/03/28 04:24:19;;;;;;;23.63;12.25;;;;;;;10.46;63.92;98610.72;4997774;28;20452;-71
2023/03/28 04:26:56;;;;;;;24.52;11.93;;;;;;;10.13;63.10;98636.75;4997312;28;20041;-71
2023/03/28 04:29:32;;;;;;;20.27;11.45;;;;;;;10.22;62.85;98640.16;5013282;28;20046;-71
2023/03/28 04:32:20;;;;;;;20.23;10.57;;;;;;;10.25;62.54;98640.59;4972728;28;20214;-71
2023/03/28 04:35:07;;;;;;;22.15;11.05;;;;;;;10.61;62.63;98637.28;4999051;28;20461;-71
2023/03/28 04:37:36;;;;;;;21.05;11.02;;;;;;;10.45;62.27;98634.78;4996859;28;20460;-70
2023/03/28 04:40:09;;;;;;;18.48;10.82;;;;;;;11.02;61.94;98636.63;5029182;28;20042;-71
2023/03/28 04:43:05;;;;;;;21.48;10.82;;;;;;;10.81;60.62;98644.50;4983874;28;20057;-69
2023/03/28 04:45:37;;;;;;;18.85;10.23;;;;;;;10.88;60.34;98637.47;5011803;28;20088;-71
2023/03/28 04:48:11;;;;;;;21.30;9.82;;;;;;;10.99;58.42;98636.19;4997444;28;20384;-71
2023/03/28 04:50:38;;;;;;;19.27;10.93;;;;;;;11.09;58.56;98639.34;5010748;28;20046;-72
2023/03/28 04:53:03;;;;;;;17.25;9.52;;;;;;;11.25;58.62;98641.81;4995681;28;20038;-71
2023/03/28 04:55:30;;;;;;;15.95;8.23;;;;;;;11.38;56.76;98640.13;5012621;28;20439;-70
2023/03/28 04:57:57;;;;;;;14.18;7.90;;;;;;;11.53;55.73;98645.44;5012576;28;20057;-71
2023/03/28 05:00:24;;;;;;;13.27;7.43;;;;;;;11.69;54.16;98655.84;4994856;28;20045;-71
2023/03/28 05:02:58;;;;;;;11.32;6.40;;;;;;;11.94;53.67;98638.50;5028216;28;20129;-71
2023/03/28 05:05:26;;;;;;;10.55;6.55;;;;;;;11.96;52.96;98656.94;5012546;28;20053;-70
2023/03/28 05:07:53;;;;;;;10.25;6.40;;;;;;;12.06;52.82;98662.75;5012253;28;20073;-70
2023/03/28 05:10:20;;;;;;;9.60;6.55;;;;;;;12.23;52.52;98664.97;4992982;28;20045;-71
2023/03/28 05:12:48;;;;;;;10.57;6.32;;;;;;;12.34;51.77;98663.63;5017442;28;20033;-70
2023/03/28 05:15:16;;;;;;;9.75;6.30;;;;;;;12.77;51.07;98679.31;5014424;28;20072;-70
2023/03/28 05:17:55;;;;;;;13.27;7.20;;;;;;;12.73;50.22;98674.56;4999604;28;20037;-71
2023/03/28 05:20:31;;;;;;;12.00;7.18;;;;;;;13.01;49.76;98670.88;5015788;28;20080;-69
2023/03/28 05:22:57;;;;;;;12.23;7.18;;;;;;;13.21;49.39;98677.13;5014131;28;20041;-70
2023/03/28 05:25:24;;;;;;;13.00;6.93;;;;;;;13.21;48.78;98679.78;4997570;28;20056;-70
2023/03/28 05:27:50;;;;;;;13.40;7.07;;;;;;;13.28;48.24;98687.84;4996691;28;20103;-71
2023/03/28 05:30:17;;;;;;;12.57;6.60;;;;;;;13.45;48.15;98684.63;5011142;28;20041;-70
2023/03/28 05:32:44;;;;;;;13.07;6.60;;;;;;;13.48;47.82;98689.56;5028510;28;20041;-69
2023/03/28 05:35:13;;;;;;;12.32;6.90;;;;;;;13.91;47.86;98695.44;5013082;28;20136;-70
2023/03/28 05:37:39;;;;;;;10.15;6.65;;;;;;;13.72;47.59;98692.72;4997153;28;20033;-69
2023/03/28 05:40:09;;;;;;;13.95;7.22;;;;;;;14.11;47.21;98692.81;5013611;28;20041;-70
2023/03/28 05:42:38;;;;;;;10.32;6.32;;;;;;;14.16;46.57;98693.03;5023952;28;20049;-70
2023/03/28 05:45:11;;;;;;;9.90;5.90;;;;;;;14.21;46.15;98699.41;5014416;28;20068;-70
2023/03/28 05:47:58;;;;;;;15.55;9.68;;;;;;;14.24;45.76;98700.84;5028413;28;20053;-69
2023/03/28 05:50:25;;;;;;;26.30;13.88;;;;;;;14.43;45.67;98705.41;5013422;28;20303;-69
2023/03/28 05:52:56;;;;;;;23.30;13.50;;;;;;;14.43;45.51;98706.25;5009507;28;20068;-71
2023/03/28 05:55:22;;;;;;;20.40;11.25;;;;;;;14.57;45.26;98717.75;5013563;28;20372;-70
2023/03/28 05:57:47;;;;;;;18.77;10.82;;;;;;;14.66;45.24;98716.50;4996953;28;20365;-70
2023/03/28 06:00:17;;;;;;;22.95;10.40;;;;;;;14.91;44.81;98720.19;5012844;28;20045;-70
2023/03/28 06:02:53;;;;;;;28.02;10.65;;;;;;;15.10;44.81;98724.69;5011239;28;20084;-70
2023/03/28 06:05:28;;;;;;;36.92;12.10;;;;;;;15.16;45.26;98726.50;5012857;28;20041;-70
2023/03/28 06:07:54;;;;;;;18.88;9.93;;;;;;;15.33;44.49;98724.22;4994879;28;20443;-70
2023/03/28 06:10:20;;;;;;;24.50;8.82;;;;;;;15.49;44.08;98729.97;5012975;28;20045;-70
2023/03/28 06:13:09;;;;;;;25.55;9.40;;;;;;;15.65;43.78;98726.00;4987734;28;20480;-70
2023/03/28 06:15:35;;;;;;;20.98;9.55;;;;;;;15.83;43.79;98728.78;4994780;28;20054;-70
2023/03/28 06:18:01;;;;;;;20.00;8.30;;;;;;;15.94;43.75;98734.31;4978738;28;20096;-70
2023/03/28 06:20:27;;;;;;;23.25;9.77;;;;;;;16.03;43.38;98732.19;4978435;28;20107;-70
2023/03/28 06:22:54;;;;;;;27.15;9.98;;;;;;;16.16;43.14;98732.94;4994799;28;20069;-70
2023/03/28 06:25:20;;;;;;;16.17;9.35;;;;;;;16.37;42.87;98748.69;4994638;28;20058;-70
2023/03/28 06:27:46;;;;;;;19.40;9.52;;;;;;;16.52;42.57;98738.50;4978310;28;20044;-70
2023/03/28 06:30:15;;;;;;;17.92;8.77;;;;;;;16.73;42.12;98739.97;4994400;28;20050;-70
2023/03/28 06:32:48;;;;;;;23.17;8.50;;;;;;;16.50;41.58;98745.09;4979538;28;20033;-70
2023/03/28 06:35:14;;;;;;;16.17;8.50;;;;;;;16.42;42.01;98734.63;4978523;28;20042;-70
2023/03/28 06:37:40;;;;;;;18.30;8.93;;;;;;;16.58;41.87;98742.16;4961752;28;20049;-70
2023/03/28 06:40:07;;;;;;;20.55;9.35;;;;;;;17.06;41.96;98735.16;4978073;28;20464;-72
2023/03/28 06:42:34;;;;;;;9.27;5.90;;;;;;;16.92;40.72;98739.00;5010875;28;20562;-70
2023/03/28 06:45:20;;;;;;;14.05;7.00;;;;;;;17.01;40.52;98737.69;4986283;28;20140;-70
2023/03/28 06:47:57;;;;;;;10.45;5.18;;;;;;;16.99;40.01;98739.75;4979468;28;20050;-70
2023/03/28 06:50:38;;;;;;;10.07;5.22;;;;;;;17.15;39.53;98736.50;4982112;28;20144;-70
2023/03/28 06:53:09;;;;;;;14.60;4.82;;;;;;;17.28;39.02;98749.81;4978479;28;20045;-71
2023/03/28 06:55:35;;;;;;;7.75;3.60;;;;;;;17.36;38.50;98743.31;5014769;28;20064;-71
2023/03/28 06:58:01;;;;;;;8.20;3.40;;;;;;;17.38;37.67;98757.31;4982247;28;20049;-70
2023/03/28 07:00:40;;;;;;;9.88;3.10;;;;;;;17.13;37.59;98756.56;4969332;28;20084;-70
2023/03/28 07:03:24;;;;;;;5.63;2.60;;;;;;;17.16;37.92;98750.75;5014382;28;20041;-70
2023/03/28 07:05:50;;;;;;;6.88;2.50;;;;;;;16.79;37.10;98760.56;5014475;28;20053;-70
2023/03/28 07:08:16;;;;;;;4.90;2.20;;;;;;;16.63;37.24;98759.25;4965377;28;20054;-70
2023/03/28 07:10:42;;;;;;;2.38;1.73;;;;;;;16.19;37.44;98772.69;4971009;28;20041;-71
2023/03/28 07:13:09;;;;;;;3.70;1.83;;;;;;;15.94;38.55;98769.13;5015713;28;20407;-71
2023/03/28 07:15:43;;;;;;;7.25;2.08;;;;;;;15.84;38.72;98754.53;5001187;28;20041;-70
2023/03/28 07:18:09;;;;;;;3.72;2.17;;;;;;;16.07;38.58;98758.34;5015704;28;20041;-71
2023/03/28 07:20:39;;;;;;;4.50;1.98;;;;;;;16.66;38.29;98728.50;5000172;28;20423;-70
2023/03/28 07:23:05;;;;;;;5.53;2.10;;;;;;;16.89;37.09;98760.91;5024866;28;20055;-70
2023/03/28 07:25:33;;;;;;;4.47;2.08;;;;;;;16.50;37.24;98766.53;5015702;28;20053;-69
2023/03/28 07:27:59;;;;;;;3.40;2.30;;;;;;;16.61;37.87;98763.19;5032731;28;20444;-70
2023/03/28 07:30:25;;;;;;;4.72;2.30;;;;;;;17.10;37.26;98762.38;4994390;28;20046;-71
2023/03/28 07:32:55;;;;;;;5.15;1.70;;;;;;;17.50;35.26;98766.31;5005363;28;20045;-70
2023/03/28 07:35:22;;;;;;;;;;;;;;;17.27;34.78;98776.84;5020873;28;20049;-71
2023/03/28 07:37:50;;;;;;;3.35;1.70;;;;;;;16.44;35.27;98776.28;5000197;28;19927;-72
2023/03/28 07:40:45;;;;;;;3.78;2.78;;;;;;;15.93;36.61;98766.66;5013878;28;20045;-70
2023/03/28 07:43:10;;;;;;;3.22;1.70;;;;;;;16.02;37.47;98752.78;5015915;28;20033;-70
2023/03/28 07:45:37;;;;;;;5.07;2.03;;;;;;;16.24;37.81;98764.84;5016056;28;20438;-70
2023/03/28 07:48:03;;;;;;;5.68;2.75;;;;;;;17.15;36.69;98757.97;4999491;28;20041;-70
2023/03/28 07:50:30;;;;;;;3.08;2.38;;;;;;;17.50;35.06;98772.50;5000405;28;20052;-72
2023/03/28 07:52:56;;;;;;;3.63;1.98;;;;;;;18.46;33.58;98770.69;4983781;28;20360;-69
2023/03/28 07:55:25;;;;;;;7.68;2.22;;;;;;;19.01;32.33;98776.66;4983635;28;20491;-70
2023/03/28 07:57:51;;;;;;;2.67;2.03;;;;;;;19.41;32.14;98775.75;5015963;28;20128;-71
2023/03/28 08:00:26;;;;;;;6.88;2.85;;;;;;;19.82;30.97;98772.06;5028733;28;20045;-70
2023/03/28 08:03:12;;;;;;;4.93;2.25;;;;;;;20.35;30.11;98769.09;5017518;28;20148;-70
2023/03/28 08:05:39;;;;;;;2.60;2.00;;;;;;;20.54;29.51;98770.53;4983763;28;20045;-69
2023/03/28 08:08:07;;;;;;;6.25;2.10;;;;;;;20.41;29.46;98777.06;5001340;28;20120;-73
2023/03/28 08:10:33;;;;;;;3.20;2.05;;;;;;;20.35;29.63;98772.63;5000748;28;20103;-70
2023/03/28 08:12:59;;;;;;;5.68;1.83;;;;;;;19.63;30.00;98771.41;5000428;28;20063;-70
2023/03/28 08:15:27;;;;;;;6.13;2.00;;;;;;;19.45;30.48;98776.13;5016527;28;20080;-71
2023/03/28 08:17:53;;;;;;;4.70;2.00;;;;;;;19.13;30.11;98766.69;4984600;28;20045;-70
2023/03/28 08:20:20;;;;;;;3.30;1.83;;;;;;;17.92;30.61;98778.84;5000400;28;20045;-71
2023/03/28 08:23:06;;;;;;;5.85;2.17;;;;;;;17.33;33.14;98762.56;5005376;28;20060;-73
2023/03/28 08:25:58;;;;;;;6.97;2.30;;;;;;;17.39;33.38;98753.63;4990643;28;20110;-70
2023/03/28 08:28:24;;;;;;;4.05;2.47;;;;;;;17.32;33.98;98750.16;5000486;28;20049;-76
2023/03/28 08:30:50;;;;;;;5.43;2.10;;;;;;;17.41;33.64;98749.66;4983855;28;20114;-72
2023/03/28 08:33:16;;;;;;;3.20;2.30;;;;;;;17.48;33.62;98755.00;5000464;28;20045;-71
2023/03/28 08:35:42;;;;;;;5.32;2.03;;;;;;;17.74;33.58;98760.06;4984127;28;20041;-71
2023/03/28 08:38:15;;;;;;;4.25;2.50;;;;;;;17.96;32.96;98748.59;4985856;28;20052;-72
2023/03/28 08:40:48;;;;;;;5.25;2.40;;;;;;;18.85;32.34;98750.44;4983891;28;20045;-70
2023/03/28 08:43:58;;;;;;;9.38;2.47;;;;;;;19.01;31.99;98752.44;5001392;28;20458;-70
2023/03/28 08:46:27;;;;;;;7.47;2.40;;;;;;;19.26;32.00;98755.72;4982770;28;20037;-70
2023/03/28 08:48:54;;;;;;;4.32;2.30;;;;;;;19.23;31.46;98750.81;4979300;28;20108;-70
2023/03/28 08:51:27;;;;;;;5.70;2.67;;;;;;;19.73;30.84;98746.53;4979210;28;20057;-70
2023/03/28 08:54:09;;;;;;;6.30;2.40;;;;;;;19.94;30.16;98744.03;4982432;28;20034;-71
2023/03/28 08:57:01;;;;;;;5.18;2.67;;;;;;;19.86;30.65;98744.41;5013365;28;20179;-72
2023/03/28 08:59:32;;;;;;;16.13;5.40;;;;;;;20.41;30.95;98744.69;5011352;28;20130;-70
2023/03/28 09:01:58;;;;;;;7.82;3.05;;;;;;;20.19;29.58;98749.13;4992610;28;20042;-70
2023/03/28 09:04:33;;;;;;;7.72;3.35;;;;;;;20.89;29.20;98757.66;5014480;28;20046;-71
2023/03/28 09:07:45;;;;;;;14.15;3.88;;;;;;;21.65;28.41;98755.03;5015692;28;20045;-71
2023/03/28 09:10:28;;;;;;;16.63;4.57;;;;;;;22.00;28.46;98739.31;4999012;28;20049;-71
2023/03/28 09:13:14;;;;;;;19.52;4.10;;;;;;;22.64;27.93;98746.50;4999861;28;20138;-70
2023/03/28 09:16:05;;;;;;;22.00;4.55;;;;;;;23.24;27.41;98740.75;5015620;28;20079;-71
2023/03/28 09:18:39;;;;;;;15.55;4.40;;;;;;;23.08;27.19;98737.09;5005975;28;20053;-75
2023/03/28 09:21:27;;;;;;;10.18;4.10;;;;;;;23.73;26.42;98752.16;5027601;28;20383;-70
2023/03/28 09:24:42;;;;;;;9.45;2.90;;;;;;;22.18;24.70;98749.78;5014138;28;20376;-70
2023/03/28 09:27:16;;;;;;;8.15;2.70;;;;;;;22.85;24.89;98759.13;5017032;28;20080;-70
2023/03/28 09:29:44;;;;;;;8.75;3.13;;;;;;;24.05;23.81;98756.41;5044262;28;20396;-70
2023/03/28 09:32:18;;;;;;;7.78;3.00;;;;;;;25.41;22.28;98751.97;5049960;28;20052;-71
2023/03/28 09:34:48;;;;;;;5.60;2.63;;;;;;;25.93;21.00;98755.09;5016243;28;20048;-71
2023/03/28 09:37:21;;;;;;;3.97;2.55;;;;;;;26.02;20.59;98753.44;5028883;28;20044;-72
2023/03/28 09:39:48;;;;;;;8.15;2.40;;;;;;;24.14;21.28;98749.38;5001271;28;20515;-72
2023/03/28 09:42:31;;;;;;;8.98;2.50;;;;;;;23.59;22.47;98740.97;4998983;28;20049;-70
2023/03/28 09:45:46;;;;;;;7.32;2.75;;;;;;;24.08;21.83;98749.66;5017813;28;20080;-71
2023/03/28 09:48:32;;;;;;;2.63;2.35;;;;;;;24.34;21.55;98759.50;5030198;28;20043;-70
2023/03/28 09:51:05;;;;;;;8.27;2.80;;;;;;;25.42;21.23;98742.72;4999183;28;20045;-70
2023/03/28 09:53:33;;;;;;;7.07;2.60;;;;;;;26.14;20.17;98745.75;4998571;28;20048;-70
2023/03/28 09:56:25;;;;;;;3.53;2.30;;;;;;;26.80;19.26;98756.28;5020592;28;20049;-73
2023/03/28 09:58:56;;;;;;;5.22;2.00;;;;;;;26.64;19.37;98749.31;5033090;28;20055;-72
2023/03/28 10:01:52;;;;;;;7.60;1.85;;;;;;;27.18;18.26;98747.25;5004179;28;20042;-74
2023/03/28 10:04:29;;;;;;;4.07;1.75;;;;;;;26.38;18.17;98746.75;5005966;28;20042;-72
2023/03/28 10:07:13;;;;;;;5.80;1.80;;;;;;;26.75;17.88;98757.13;5017806;28;20151;-71
2023/03/28 10:09:50;;;;;;;3.50;1.95;;;;;;;26.87;18.64;98743.13;5000771;28;20045;-73
2023/03/28 10:12:32;;;;;;;8.40;1.90;;;;;;;28.25;17.83;98760.25;5000730;28;20065;-72
2023/03/28 10:14:58;;;;;;;5.80;1.70;;;;;;;28.57;16.48;98749.44;5020190;28;20045;-72
2023/03/28 10:17:42;;;;;;;2.22;1.60;;;;;;;29.69;15.80;98751.97;4996370;28;20111;-71
2023/03/28 10:20:18;;;;;;;3.70;1.73;;;;;;;31.53;14.97;98751.59;4998013;28;20037;-72
2023/03/28 10:22:50;;;;;;;3.00;1.63;;;;;;;32.22;13.02;98767.25;4994766;28;20045;-72
2023/03/28 10:25:21;;;;;;;7.05;2.15;;;;;;;32.17;13.61;98750.06;4980958;28;20072;-72
2023/03/28 10:27:50;;;;;;;3.20;1.77;;;;;;;34.03;12.46;98741.97;5028986;28;20538;-73
2023/03/28 10:30:24;;;;;;;6.93;1.73;;;;;;;35.18;11.36;98731.88;4981671;28;20102;-72
2023/03/28 10:33:28;;;;;;;6.70;2.13;;;;;;;35.83;10.62;98724.69;5014400;28;20049;-72
2023/03/28 10:36:41;;;;;;;6.03;2.00;;;;;;;34.68;11.38;98717.38;5015593;28;20056;-72
2023/03/28 10:39:27;;;;;;;;;;;;;;;35.70;10.48;98741.22;4998929;28;20136;-72
2023/03/28 10:42:42;;;;;;;3.55;1.90;;;;;;;35.94;11.00;98723.06;4998849;28;19928;-72
2023/03/28 10:45:36;;;;;;;4.15;2.08;;;;;;;37.31;10.42;98718.91;4986851;28;20053;-72
2023/03/28 10:48:15;;;;;;;3.85;1.65;;;;;;;38.91;9.10;98714.84;4982360;28;20045;-73
2023/03/28 10:50:45;;;;;;;8.25;1.80;;;;;;;39.48;8.51;98709.25;4998114;28;20088;-72
2023/03/28 10:53:36;;;;;;;6.65;2.17;;;;;;;36.64;8.53;98706.72;4998180;28;20046;-73
2023/03/28 10:56:09;;;;;;;11.13;2.40;;;;;;;34.50;10.68;98687.53;5014943;28;20049;-72
2023/03/28 10:59:16;;;;;;;3.80;2.25;;;;;;;36.07;10.25;98697.84;5030820;28;20354;-71
2023/03/28 11:01:43;;;;;;;4.63;2.20;;;;;;;35.70;10.04;98701.75;4998375;28;20483;-74
2023/03/28 11:04:16;;;;;;;2.67;2.30;;;;;;;34.15;11.10;98692.47;5014634;28;20049;-72
2023/03/28 11:06:45;;;;;;;8.02;2.40;;;;;;;34.58;11.07;98679.19;4998161;28;20052;-72
2023/03/28 11:09:25;;;;;;;9.38;2.53;;;;;;;36.95;10.70;98697.75;4998373;28;20083;-75
2023/03/28 11:12:42;;;;;;;4.80;2.35;;;;;;;37.13;9.94;98704.56;5016582;28;20048;-72
2023/03/28 11:15:17;;;;;;;4.20;2.50;;;;;;;35.73;10.57;98679.75;4997827;28;20061;-72
2023/03/28 11:18:11;;;;;;;9.05;2.63;;;;;;;35.48;10.63;98691.94;5014735;28;20048;-74
2023/03/28 11:20:53;;;;;;;4.80;2.92;;;;;;;33.78;11.13;98685.84;4997858;28;20057;-73
2023/03/28 11:23:50;;;;;;;8.85;2.97;;;;;;;32.41;13.38;98677.06;5030445;28;20092;-74
2023/03/28 11:27:18;;;;;;;4.55;3.03;;;;;;;31.60;13.00;98677.81;4962890;28;20080;-70
2023/03/28 11:30:04;;;;;;;5.53;3.10;;;;;;;29.85;14.85;98680.19;4987987;28;20066;-70
2023/03/28 11:32:40;;;;;;;5.28;3.60;;;;;;;28.56;16.43;98651.38;4989993;28;20049;-70
2023/03/28 11:35:30;;;;;;;10.82;3.15;;;;;;;30.28;15.55;98664.19;4973778;28;20129;-70
2023/03/28 11:38:07;;;;;;;6.30;3.70;;;;;;;31.24;13.97;98668.94;4989717;28;20201;-74
2023/03/28 11:40:57;;;;;;;6.32;3.30;;;;;;;29.52;15.13;98657.56;4992109;28;20197;-73
2023/03/28 11:43:45;;;;;;;10.25;3.63;;;;;;;28.66;15.71;98648.50;4977330;28;20086;-73
2023/03/28 11:46:20;;;;;;;12.30;3.50;;;;;;;27.65;15.77;98670.94;4972324;28;20054;-74
2023/03/28 11:48:54;;;;;;;8.45;2.83;;;;;;;25.56;18.14;98631.47;4941140;28;20564;-74
2023/03/28 11:51:41;;;;;;;4.70;2.47;;;;;;;23.34;20.08;98628.94;4979151;28;20038;-74
2023/03/28 11:54:36;;;;;;;4.72;2.63;;;;;;;22.72;21.13;98636.94;4997086;28;20064;-74
2023/03/28 11:57:13;;;;;;;5.93;2.65;;;;;;;21.90;21.79;98668.88;4995129;28;20373;-74
2023/03/28 11:59:58;;;;;;;4.28;2.72;;;;;;;20.43;23.37;98621.19;4984331;28;20042;-73
2023/03/28 12:02:28;;;;;;;4.82;2.15;;;;;;;19.66;24.46;98644.31;4997201;28;20052;-71
2023/03/28 12:05:02;;;;;;;4.90;2.63;;;;;;;19.23;25.83;98624.28;5013216;28;20120;-73